Flight Briefing for CPX253

Departure Arrival
Fort Worth Alliance Airport (KAFW)
Click to view FAA NOTAMS
Chicago/Rockford International Airport (KRFD)
Click to view FAA NOTAMS
Departure Time Arrival Time
N/A N/A
Aircraft Distance
B767-300BDSF 676nm
Departure METAR Arrival METAR
KAFW 221053Z 04003KT 10SM SCT250 11/03 A3014 RMK AO2 SLP200 T01060033 KRFD 221054Z 31006KT 10SM CLR 01/M02 A3002 RMK AO2 SLP171 T00111017
Suggested Route
TEX5 OKM J181 BAYLI J105 BDF


View recent IFR Routes data
Notes



Charts and Procedures

Charts for KAFW
No chart available
Charts for KRFD
No chart available

Windy.com Weather Map